Time;durP1;ratioP1;P1;durP2;ratioP2;P2;SDS_P1;SDS_P2;PMS_P1;PMS_P2;Temp;Humidity;BMP_temperature;BMP_pressure;BME280_temperature;BME280_humidity;BME280_pressure;Samples;Min_cycle;Max_cycle;Signal;HPM_P1;HPM_P2
2024/01/02 00:02:01;;;;;;;1.00;0.90;;;16.40;51.00;;;;;;6157306;23;20166;-83
2024/01/02 00:04:27;;;;;;;1.05;0.93;;;16.40;51.10;;;;;;6132986;23;20182;-83
2024/01/02 00:06:53;;;;;;;0.85;0.70;;;16.40;51.10;;;;;;6157959;23;20131;-82
2024/01/02 00:09:24;;;;;;;0.90;0.90;;;16.40;51.00;;;;;;6183696;23;20166;-83
2024/01/02 00:11:49;;;;;;;1.00;0.90;;;16.40;51.00;;;;;;6131436;23;20159;-83
2024/01/02 00:14:15;;;;;;;1.30;0.90;;;16.40;50.90;;;;;;6155990;23;20147;-82
2024/01/02 00:16:41;;;;;;;1.00;0.80;;;16.40;51.10;;;;;;6158427;23;20571;-83
2024/01/02 00:19:08;;;;;;;0.70;0.70;;;16.40;51.10;;;;;;6182521;23;20470;-85
2024/01/02 00:24:01;;;;;;;0.82;0.82;;;16.40;51.00;;;;;;6211662;23;20205;-81
2024/01/02 00:26:27;;;;;;;0.85;0.82;;;16.40;51.00;;;;;;6212959;23;20134;-83
2024/01/02 00:28:53;;;;;;;1.00;0.90;;;16.40;51.00;;;;;;6187102;23;20134;-83
2024/01/02 00:34:06;;;;;;;1.13;1.02;;;16.40;50.90;;;;;;6183375;23;20186;-82
2024/01/02 00:36:32;;;;;;;0.80;0.80;;;16.40;50.90;;;;;;6156851;23;20177;-83
2024/01/02 00:38:58;;;;;;;0.93;0.90;;;16.40;51.00;;;;;;6183475;23;20135;-83
2024/01/02 00:41:26;;;;;;;0.85;0.85;;;16.40;50.90;;;;;;6183114;23;20178;-82
2024/01/02 00:43:55;;;;;;;0.80;0.80;;;16.40;51.00;;;;;;6162633;23;20208;-84
2024/01/02 00:46:21;;;;;;;1.00;0.90;;;16.40;51.00;;;;;;6151951;23;20234;-82
2024/01/02 00:48:46;;;;;;;0.80;0.80;;;16.40;51.00;;;;;;6128145;23;20175;-83
2024/01/02 00:51:12;;;;;;;0.90;0.85;;;16.40;51.00;;;;;;6128821;23;20238;-81
2024/01/02 00:53:38;;;;;;;1.02;0.90;;;16.40;51.00;;;;;;6186091;23;20206;-83
2024/01/02 00:56:06;;;;;;;0.95;0.90;;;16.40;51.00;;;;;;6139465;23;20166;-82
2024/01/02 00:58:32;;;;;;;1.20;1.10;;;16.40;51.00;;;;;;6137615;23;20211;-82
2024/01/02 01:00:58;;;;;;;1.10;1.00;;;16.40;51.10;;;;;;6154024;23;20286;-83
2024/01/02 01:03:23;;;;;;;0.80;0.80;;;16.40;51.00;;;;;;6130717;23;20144;-82
2024/01/02 01:05:49;;;;;;;1.40;1.08;;;16.40;50.90;;;;;;6156174;23;20132;-82
2024/01/02 01:08:15;;;;;;;1.08;0.90;;;16.50;50.90;;;;;;6130531;23;20131;-83
2024/01/02 01:10:43;;;;;;;1.15;0.90;;;16.40;50.90;;;;;;6154937;23;20612;-83
2024/01/02 01:13:12;;;;;;;0.90;0.85;;;16.40;50.90;;;;;;6080171;23;20162;-83
2024/01/02 01:18:03;;;;;;;0.90;0.90;;;16.40;51.00;;;;;;6157546;23;20237;-84
2024/01/02 01:20:29;;;;;;;0.70;0.70;;;16.50;51.00;;;;;;6134497;23;20167;-82
2024/01/02 01:22:55;;;;;;;1.10;1.00;;;16.40;51.00;;;;;;6109767;23;20574;-83
2024/01/02 01:25:24;;;;;;;1.25;1.15;;;16.40;51.00;;;;;;6159290;23;20238;-82
2024/01/02 01:27:50;;;;;;;1.08;0.82;;;16.40;50.90;;;;;;6158178;23;20225;-83
2024/01/02 01:30:20;;;;;;;1.05;0.82;;;16.40;51.00;;;;;;6110655;23;20568;-82
2024/01/02 01:32:48;;;;;;;0.85;0.85;;;16.40;51.00;;;;;;6158312;23;20225;-83
2024/01/02 01:35:17;;;;;;;1.13;1.02;;;16.40;50.90;;;;;;6188024;23;20193;-83
2024/01/02 01:37:45;;;;;;;0.93;0.80;;;16.40;51.00;;;;;;6138838;23;20296;-83
2024/01/02 01:40:11;;;;;;;1.10;0.90;;;16.40;51.00;;;;;;6162307;23;20166;-82
2024/01/02 01:42:39;;;;;;;0.98;0.80;;;16.40;51.00;;;;;;6164905;23;20246;-83
2024/01/02 01:45:07;;;;;;;0.88;0.82;;;16.30;51.00;;;;;;6139406;23;20185;-82
2024/01/02 01:47:35;;;;;;;1.00;0.90;;;16.40;51.00;;;;;;6138718;23;20154;-81
2024/01/02 01:50:01;;;;;;;0.90;0.90;;;16.40;51.00;;;;;;6113849;23;20154;-82
2024/01/02 01:52:32;;;;;;;0.80;0.73;;;16.40;51.00;;;;;;6214683;23;20217;-84
2024/01/02 01:54:58;;;;;;;1.10;1.00;;;16.40;51.00;;;;;;6166910;23;20457;-82
2024/01/02 01:57:28;;;;;;;0.80;0.80;;;16.40;51.00;;;;;;6164238;23;20134;-83
2024/01/02 01:59:57;;;;;;;1.17;0.90;;;16.40;51.00;;;;;;6114854;23;20237;-83
2024/01/02 02:02:27;;;;;;;1.10;1.00;;;16.30;51.00;;;;;;6139022;23;20190;-83
2024/01/02 02:04:56;;;;;;;0.93;0.90;;;16.40;51.00;;;;;;6139250;23;20173;-83
2024/01/02 02:07:22;;;;;;;1.00;0.90;;;16.40;51.00;;;;;;6113206;23;20173;-82
2024/01/02 02:09:50;;;;;;;1.10;1.00;;;16.40;50.90;;;;;;6163652;23;20130;-82
2024/01/02 02:12:19;;;;;;;1.10;0.93;;;16.40;50.80;;;;;;6112119;23;20177;-83
2024/01/02 02:14:44;;;;;;;0.80;0.80;;;16.40;50.90;;;;;;6113650;23;20582;-83
2024/01/02 02:17:19;;;;;;;1.08;0.98;;;16.30;50.90;;;;;;6188035;23;20142;-82
2024/01/02 02:19:48;;;;;;;0.80;0.80;;;16.40;51.00;;;;;;6138790;23;20481;-82
2024/01/02 02:22:16;;;;;;;0.98;0.90;;;16.30;50.90;;;;;;6090082;23;20186;-84
2024/01/02 02:24:42;;;;;;;1.05;0.95;;;16.40;51.00;;;;;;6089143;23;20160;-83
2024/01/02 02:27:09;;;;;;;0.73;0.73;;;16.40;50.90;;;;;;6214002;23;20134;-83
2024/01/02 02:29:35;;;;;;;0.98;0.90;;;16.40;51.00;;;;;;6163615;23;20149;-84
2024/01/02 02:32:02;;;;;;;1.00;0.90;;;16.40;50.90;;;;;;6188504;23;20142;-83
2024/01/02 02:34:29;;;;;;;1.20;0.98;;;16.40;51.00;;;;;;6138919;23;20348;-82
2024/01/02 02:36:55;;;;;;;1.00;0.90;;;16.30;51.00;;;;;;6113484;23;20220;-82
2024/01/02 02:39:21;;;;;;;1.23;0.98;;;16.30;51.00;;;;;;6163658;23;20134;-85
2024/01/02 02:41:47;;;;;;;1.02;0.90;;;16.30;51.00;;;;;;6139364;23;20184;-82
2024/01/02 02:44:12;;;;;;;1.10;1.00;;;16.40;51.00;;;;;;6215472;23;20136;-83
2024/01/02 02:46:39;;;;;;;1.73;1.00;;;16.40;51.00;;;;;;6215065;23;20205;-83
2024/01/02 02:49:05;;;;;;;0.90;0.80;;;16.40;51.00;;;;;;6136831;23;20597;-82
2024/01/02 02:51:34;;;;;;;1.05;0.80;;;16.30;50.90;;;;;;6139554;23;20153;-84
2024/01/02 02:53:59;;;;;;;0.73;0.70;;;16.30;51.00;;;;;;6162652;23;20169;-83
2024/01/02 02:56:25;;;;;;;0.85;0.80;;;16.30;51.00;;;;;;6163473;23;20149;-82
2024/01/02 02:58:52;;;;;;;1.33;0.98;;;16.30;51.00;;;;;;6138357;23;20567;-82
2024/01/02 03:01:22;;;;;;;0.95;0.90;;;16.30;51.00;;;;;;6163521;23;20169;-81
2024/01/02 03:03:47;;;;;;;0.80;0.75;;;16.30;51.00;;;;;;6163822;23;20122;-82
2024/01/02 03:06:18;;;;;;;0.80;0.80;;;16.30;50.90;;;;;;6157809;23;20253;-83
2024/01/02 03:08:47;;;;;;;1.52;1.10;;;16.30;51.00;;;;;;6084032;23;20159;-84
2024/01/02 03:11:13;;;;;;;0.70;0.70;;;16.30;51.00;;;;;;6108117;23;20601;-83
2024/01/02 03:13:39;;;;;;;0.95;0.95;;;16.30;51.00;;;;;;6134168;23;20150;-82
2024/01/02 03:16:07;;;;;;;1.13;0.93;;;16.30;50.90;;;;;;6182869;23;20588;-83
2024/01/02 03:18:33;;;;;;;0.88;0.80;;;16.30;50.80;;;;;;6175611;23;20214;-82
2024/01/02 03:20:58;;;;;;;0.93;0.80;;;16.30;50.90;;;;;;6152500;23;20675;-82
2024/01/02 03:23:26;;;;;;;0.80;0.80;;;16.30;51.00;;;;;;6155354;23;20578;-83
2024/01/02 03:25:53;;;;;;;0.63;0.63;;;16.20;50.80;;;;;;6152119;23;20209;-82
2024/01/02 03:28:19;;;;;;;1.05;0.95;;;16.30;50.90;;;;;;6144092;23;20233;-83
2024/01/02 03:30:47;;;;;;;0.93;0.82;;;16.30;50.90;;;;;;6182658;23;20574;-82
2024/01/02 03:33:13;;;;;;;0.85;0.80;;;16.30;50.90;;;;;;6107814;23;20159;-84
2024/01/02 03:35:38;;;;;;;0.80;0.80;;;16.30;51.00;;;;;;6158084;23;20571;-82
2024/01/02 03:40:37;;;;;;;1.10;1.00;;;16.30;51.00;;;;;;6184841;23;20198;-82
2024/01/02 03:43:03;;;;;;;1.08;1.00;;;16.30;51.00;;;;;;6131558;23;20157;-83
2024/01/02 03:45:29;;;;;;;0.80;0.80;;;16.40;51.00;;;;;;6158237;23;20693;-83
2024/01/02 03:47:55;;;;;;;0.90;0.80;;;16.20;50.90;;;;;;6183291;23;20131;-83
2024/01/02 03:52:52;;;;;;;0.88;0.85;;;16.30;51.10;;;;;;6210728;22;20209;-82
2024/01/02 03:55:17;;;;;;;0.77;0.73;;;16.30;51.00;;;;;;6187427;23;20150;-81
2024/01/02 03:57:45;;;;;;;1.00;0.88;;;16.30;51.10;;;;;;6162076;23;20157;-82
2024/01/02 04:00:12;;;;;;;0.73;0.73;;;16.30;51.10;;;;;;6111290;23;20177;-83
2024/01/02 04:02:38;;;;;;;1.10;1.00;;;16.30;51.00;;;;;;6112781;23;20212;-83
2024/01/02 04:05:07;;;;;;;0.85;0.85;;;16.20;51.00;;;;;;6187672;23;20154;-81
2024/01/02 04:07:33;;;;;;;1.38;1.00;;;16.30;51.70;;;;;;6136908;23;20157;-82
2024/01/02 04:10:01;;;;;;;0.73;0.73;;;16.20;51.00;;;;;;6164180;23;20165;-82
2024/01/02 04:12:29;;;;;;;0.88;0.88;;;16.30;51.00;;;;;;6090288;23;20154;-83
2024/01/02 04:14:57;;;;;;;1.05;0.95;;;16.30;51.00;;;;;;6139337;23;20154;-82
2024/01/02 04:17:23;;;;;;;1.30;1.00;;;16.30;51.00;;;;;;6090455;23;20158;-84
2024/01/02 04:19:48;;;;;;;0.90;0.90;;;16.30;51.00;;;;;;6165314;23;20554;-81
2024/01/02 04:22:14;;;;;;;0.93;0.82;;;16.30;51.00;;;;;;6191543;23;20162;-81
2024/01/02 04:24:40;;;;;;;1.17;0.90;;;16.30;51.00;;;;;;6189382;23;20131;-83
2024/01/02 04:27:07;;;;;;;1.10;0.90;;;16.30;50.90;;;;;;6165399;23;20137;-83
2024/01/02 04:29:32;;;;;;;1.13;1.02;;;16.30;51.00;;;;;;6114401;23;20158;-82
2024/01/02 04:31:59;;;;;;;1.02;0.93;;;16.20;51.00;;;;;;6164532;23;20144;-83
2024/01/02 04:34:25;;;;;;;1.02;0.95;;;16.20;51.00;;;;;;6140763;23;20536;-82
2024/01/02 04:36:51;;;;;;;1.05;0.95;;;16.20;50.90;;;;;;6190586;23;20158;-82
2024/01/02 04:39:17;;;;;;;0.90;0.90;;;16.30;51.00;;;;;;6165195;23;20138;-83
2024/01/02 04:41:44;;;;;;;1.05;0.95;;;16.20;51.00;;;;;;6215902;23;20165;-83
2024/01/02 04:44:10;;;;;;;0.90;0.85;;;16.20;51.00;;;;;;6214418;23;20138;-81
2024/01/02 04:46:36;;;;;;;0.82;0.73;;;16.20;51.00;;;;;;6215631;23;20137;-83
2024/01/02 04:49:01;;;;;;;1.00;0.80;;;16.20;50.90;;;;;;6164531;23;20512;-83
2024/01/02 04:51:34;;;;;;;1.08;0.95;;;16.30;50.90;;;;;;6188632;23;20210;-84
2024/01/02 04:54:14;;;;;;;0.93;0.80;;;16.30;51.00;;;;;;6188623;23;20158;-83
2024/01/02 04:56:40;;;;;;;0.75;0.75;;;16.20;51.00;;;;;;6215197;23;20621;-82
2024/01/02 04:59:08;;;;;;;1.15;0.90;;;16.20;50.90;;;;;;6215852;23;20135;-82
2024/01/02 05:01:34;;;;;;;0.88;0.88;;;16.20;50.90;;;;;;6114029;23;20264;-82
2024/01/02 05:03:59;;;;;;;1.05;0.95;;;16.20;51.00;;;;;;6189515;23;20494;-83
2024/01/02 05:06:25;;;;;;;0.95;0.88;;;16.30;51.00;;;;;;6164451;23;20233;-81
2024/01/02 05:08:53;;;;;;;0.80;0.80;;;16.20;51.00;;;;;;6164202;23;20130;-82
2024/01/02 05:13:54;;;;;;;1.00;0.90;;;16.20;51.00;;;;;;6185649;23;20163;-83
2024/01/02 05:16:23;;;;;;;0.90;0.90;;;16.20;51.00;;;;;;6134988;23;20154;-82
2024/01/02 05:18:48;;;;;;;1.13;1.02;;;16.20;51.00;;;;;;6159255;23;20158;-82
2024/01/02 05:21:14;;;;;;;0.85;0.85;;;16.20;51.00;;;;;;6158809;23;20174;-83
2024/01/02 05:26:05;;;;;;;1.00;0.90;;;16.30;50.90;;;;;;6215228;23;20214;-81
2024/01/02 05:28:32;;;;;;;0.77;0.60;;;16.30;50.90;;;;;;6190086;23;20175;-83
2024/01/02 05:30:58;;;;;;;0.85;0.85;;;16.30;50.90;;;;;;6112854;23;20245;-84
2024/01/02 05:33:24;;;;;;;0.82;0.80;;;16.30;50.90;;;;;;6214731;23;20224;-83
2024/01/02 05:35:50;;;;;;;0.73;0.73;;;16.20;50.90;;;;;;6189024;23;20600;-83
2024/01/02 05:38:16;;;;;;;0.95;0.85;;;16.20;50.90;;;;;;6163330;23;20200;-82
2024/01/02 05:45:32;;;;;;;1.30;1.00;;;16.30;50.90;;;;;;6214129;23;20641;-81
2024/01/02 05:53:09;;;;;;;1.02;0.93;;;16.20;50.90;;;;;;6185929;23;20191;-84
2024/01/02 05:55:35;;;;;;;0.90;0.88;;;16.20;51.00;;;;;;6184517;23;20151;-82
2024/01/02 05:58:03;;;;;;;1.02;0.93;;;16.20;50.90;;;;;;6158011;23;20150;-83
2024/01/02 06:00:29;;;;;;;1.00;0.90;;;16.20;50.90;;;;;;6157669;23;20150;-84
2024/01/02 06:02:57;;;;;;;1.15;1.00;;;16.20;50.90;;;;;;6158275;23;20154;-82
2024/01/02 06:05:25;;;;;;;1.05;0.80;;;16.20;50.90;;;;;;6157728;23;20147;-82
2024/01/02 06:07:52;;;;;;;0.80;0.80;;;16.20;50.90;;;;;;6184112;23;20154;-82
2024/01/02 06:10:18;;;;;;;0.80;0.80;;;16.20;51.00;;;;;;6183312;23;20158;-84
2024/01/02 06:12:44;;;;;;;1.10;0.82;;;16.20;50.80;;;;;;6183550;23;20131;-82
2024/01/02 06:15:10;;;;;;;1.10;1.00;;;16.20;50.80;;;;;;6163615;23;20173;-83
2024/01/02 06:17:35;;;;;;;1.10;1.00;;;16.30;50.80;;;;;;6163711;23;20131;-82
2024/01/02 06:20:10;;;;;;;0.77;0.77;;;16.20;50.90;;;;;;6163459;23;20174;-83
2024/01/02 06:22:41;;;;;;;0.80;0.77;;;16.20;50.90;;;;;;6116329;23;20204;-82
2024/01/02 06:25:09;;;;;;;1.10;0.82;;;16.20;50.80;;;;;;6113975;23;20237;-82
2024/01/02 06:27:40;;;;;;;1.10;1.00;;;16.20;50.90;;;;;;6140045;23;20458;-82
2024/01/02 06:30:07;;;;;;;0.80;0.80;;;16.30;50.70;;;;;;6088833;23;20192;-85
2024/01/02 06:32:33;;;;;;;1.08;0.90;;;16.30;50.90;;;;;;6163334;23;20204;-82
2024/01/02 06:35:03;;;;;;;1.00;0.90;;;16.30;50.70;;;;;;6213075;23;20199;-84
2024/01/02 06:37:29;;;;;;;1.20;0.90;;;16.20;50.70;;;;;;6126041;23;20611;-83
2024/01/02 06:39:55;;;;;;;0.98;0.93;;;16.30;50.70;;;;;;6099541;23;20152;-83
2024/01/02 06:42:23;;;;;;;1.10;1.00;;;16.30;50.60;;;;;;6075267;23;20183;-81
2024/01/02 06:44:49;;;;;;;1.13;1.02;;;16.30;50.70;;;;;;6100917;23;20147;-83
2024/01/02 06:47:17;;;;;;;0.95;0.80;;;16.30;50.40;;;;;;6100487;23;20140;-83
2024/01/02 06:49:44;;;;;;;0.60;0.60;;;16.40;50.40;;;;;;6126780;23;20133;-82
2024/01/02 06:52:10;;;;;;;0.80;0.80;;;16.30;50.40;;;;;;6126594;23;20136;-83
2024/01/02 06:54:36;;;;;;;1.08;0.98;;;16.40;50.50;;;;;;6100437;23;20279;-82
2024/01/02 06:57:04;;;;;;;1.45;1.02;;;16.40;50.60;;;;;;6075489;23;20878;-83
2024/01/02 06:59:30;;;;;;;0.88;0.88;;;16.30;51.00;;;;;;6075812;23;20166;-83
2024/01/02 07:01:56;;;;;;;1.13;1.00;;;16.30;51.00;;;;;;6052370;23;20250;-83
2024/01/02 07:04:24;;;;;;;1.02;1.00;;;16.30;51.00;;;;;;6099823;23;20219;-82
2024/01/02 07:06:53;;;;;;;1.00;0.90;;;16.30;51.00;;;;;;6049164;23;20175;-82
2024/01/02 07:09:26;;;;;;;0.88;0.80;;;16.30;50.90;;;;;;6075420;23;20155;-83
2024/01/02 07:11:52;;;;;;;0.80;0.80;;;16.30;51.00;;;;;;6100447;23;20140;-81
2024/01/02 07:14:19;;;;;;;1.65;0.95;;;16.20;50.90;;;;;;6126029;23;20203;-83
2024/01/02 07:16:45;;;;;;;1.02;0.93;;;16.30;50.80;;;;;;6050863;23;20206;-82
2024/01/02 07:19:11;;;;;;;1.10;0.90;;;16.30;50.70;;;;;;6100362;23;20568;-83
2024/01/02 07:21:37;;;;;;;1.00;0.90;;;16.40;50.60;;;;;;6099671;23;20183;-82
2024/01/02 07:24:06;;;;;;;1.00;0.90;;;16.40;50.20;;;;;;6100756;23;20132;-82
2024/01/02 07:26:32;;;;;;;1.27;1.00;;;16.50;50.30;;;;;;6075113;23;20156;-83
2024/01/02 07:28:58;;;;;;;0.65;0.65;;;16.50;50.30;;;;;;6052425;23;20151;-82
2024/01/02 07:31:26;;;;;;;1.10;1.00;;;16.50;49.90;;;;;;6075986;23;20483;-84
2024/01/02 07:33:51;;;;;;;1.10;0.93;;;16.50;50.00;;;;;;6076061;23;20231;-82
2024/01/02 07:36:18;;;;;;;0.75;0.75;;;16.50;49.90;;;;;;6075156;23;20223;-83
2024/01/02 07:39:40;;;;;;;1.13;0.90;;;16.60;49.90;;;;;;6098287;23;20140;-86
2024/01/02 07:42:05;;;;;;;1.63;0.90;;;16.60;49.50;;;;;;6082035;23;20207;-82
2024/01/02 07:44:32;;;;;;;1.10;0.93;;;16.60;49.50;;;;;;6098269;23;20140;-83
2024/01/02 07:46:59;;;;;;;1.83;1.00;;;16.60;49.70;;;;;;6051721;23;20159;-83
2024/01/02 07:49:26;;;;;;;0.77;0.77;;;16.60;49.60;;;;;;6051972;23;20151;-82
2024/01/02 07:51:54;;;;;;;0.80;0.80;;;16.60;49.70;;;;;;6050575;23;20183;-82
2024/01/02 07:54:20;;;;;;;2.60;1.10;;;16.60;49.20;;;;;;6026708;23;20148;-83
2024/01/02 07:56:46;;;;;;;1.08;0.98;;;16.60;49.50;;;;;;6124785;23;20500;-84
2024/01/02 07:59:15;;;;;;;1.10;0.70;;;16.70;49.30;;;;;;6099549;23;20207;-84
2024/01/02 08:01:42;;;;;;;0.75;0.75;;;16.60;49.10;;;;;;6100872;23;20171;-83
2024/01/02 08:04:07;;;;;;;0.75;0.75;;;16.60;49.30;;;;;;6125985;23;20144;-83
2024/01/02 08:06:34;;;;;;;0.77;0.77;;;16.60;49.50;;;;;;6076432;23;20219;-83
2024/01/02 08:09:00;;;;;;;1.30;0.82;;;16.70;50.00;;;;;;6100753;23;20133;-84
2024/01/02 08:11:26;;;;;;;0.80;0.80;;;16.60;49.40;;;;;;6100717;23;20476;-84
2024/01/02 08:14:03;;;;;;;1.23;1.00;;;16.60;49.40;;;;;;6127127;23;20136;-83
2024/01/02 08:16:41;;;;;;;1.08;0.85;;;16.60;49.40;;;;;;6052951;23;20151;-82
2024/01/02 08:19:10;;;;;;;0.82;0.82;;;16.60;49.40;;;;;;6079776;23;20544;-84
2024/01/02 08:21:37;;;;;;;0.82;0.82;;;16.60;49.60;;;;;;6052981;23;20184;-84
2024/01/02 08:24:03;;;;;;;1.00;0.80;;;16.60;49.50;;;;;;6053597;23;20156;-84
2024/01/02 08:26:29;;;;;;;0.82;0.82;;;16.60;49.40;;;;;;6078121;23;20148;-84
2024/01/02 08:28:55;;;;;;;0.80;0.80;;;16.60;49.40;;;;;;6076587;23;20136;-83
2024/01/02 08:31:24;;;;;;;0.60;0.60;;;16.60;49.40;;;;;;6101133;23;20160;-84
2024/01/02 08:33:50;;;;;;;1.33;1.00;;;16.60;49.20;;;;;;6077995;23;20140;-84
2024/01/02 08:36:18;;;;;;;1.38;0.70;;;16.70;49.00;;;;;;6007909;23;1671183;-81
2024/01/02 08:38:44;;;;;;;2.75;0.60;;;16.70;49.00;;;;;;6079546;23;20195;-82
2024/01/02 08:41:10;;;;;;;1.17;0.90;;;16.70;48.90;;;;;;6102047;23;20187;-81
2024/01/02 08:43:36;;;;;;;0.70;0.70;;;16.60;49.00;;;;;;6102257;23;20133;-83
2024/01/02 08:46:02;;;;;;;4.75;1.10;;;16.80;48.70;;;;;;6101981;23;20140;-82
2024/01/02 08:48:28;;;;;;;1.15;0.70;;;16.70;49.10;;;;;;6055365;23;20160;-82
2024/01/02 08:50:54;;;;;;;0.70;0.70;;;16.80;50.00;;;;;;6128417;23;20156;-82
2024/01/02 08:53:20;;;;;;;0.77;0.73;;;16.70;49.40;;;;;;6102191;23;20133;-85
2024/01/02 08:55:46;;;;;;;0.70;0.70;;;16.70;49.20;;;;;;6076985;23;20147;-83
2024/01/02 08:58:12;;;;;;;1.27;0.80;;;16.70;49.40;;;;;;6126926;23;20469;-83
2024/01/02 09:00:38;;;;;;;0.80;0.80;;;16.70;49.30;;;;;;6102246;23;20152;-82
2024/01/02 09:03:05;;;;;;;0.98;0.80;;;16.80;48.90;;;;;;6054477;23;20528;-83
2024/01/02 09:05:33;;;;;;;0.95;0.80;;;16.80;49.00;;;;;;6077919;23;20576;-83
2024/01/02 09:08:00;;;;;;;0.90;0.88;;;16.80;49.00;;;;;;6029214;23;20199;-83
2024/01/02 09:10:28;;;;;;;0.82;0.60;;;16.80;49.10;;;;;;6102232;23;20430;-83
2024/01/02 09:12:57;;;;;;;1.40;0.70;;;16.80;49.00;;;;;;6029580;23;20156;-83
2024/01/02 09:15:25;;;;;;;0.93;0.70;;;16.70;49.20;;;;;;6029638;23;20175;-83
2024/01/02 09:17:51;;;;;;;1.15;0.80;;;16.80;49.70;;;;;;6052483;23;20160;-84
2024/01/02 09:20:18;;;;;;;2.33;0.90;;;16.90;48.90;;;;;;6077914;23;20171;-83
2024/01/02 09:22:45;;;;;;;0.77;0.77;;;16.90;48.70;;;;;;6054361;23;20550;-83
2024/01/02 09:25:12;;;;;;;1.73;0.80;;;17.00;48.60;;;;;;6028931;23;20224;-82
2024/01/02 09:27:37;;;;;;;2.50;0.98;;;17.00;48.90;;;;;;6078049;23;20136;-83
2024/01/02 09:30:06;;;;;;;3.50;0.82;;;17.00;48.40;;;;;;6128249;23;20143;-82
2024/01/02 09:32:35;;;;;;;2.88;0.93;;;17.10;47.90;;;;;;6054192;23;20243;-82
2024/01/02 09:35:04;;;;;;;7.05;1.20;;;17.00;48.20;;;;;;6053995;23;20156;-82
2024/01/02 09:37:32;;;;;;;8.45;1.35;;;17.10;48.70;;;;;;6077384;23;20164;-82
2024/01/02 09:40:03;;;;;;;30.00;3.10;;;17.10;48.20;;;;;;6053768;23;20160;-84
2024/01/02 09:42:41;;;;;;;31.25;2.47;;;17.00;48.80;;;;;;6054940;23;20219;-84
2024/01/02 09:45:32;;;;;;;33.13;3.33;;;17.00;48.30;;;;;;6129420;23;20155;-82
2024/01/02 09:48:18;;;;;;;43.08;3.45;;;17.10;48.50;;;;;;6080336;23;20144;-83
2024/01/02 09:51:20;;;;;;;36.28;3.78;;;17.00;48.70;;;;;;6079584;23;20170;-83
2024/01/02 09:54:05;;;;;;;48.38;4.10;;;17.10;47.80;;;;;;6080991;23;20592;-83
2024/01/02 09:57:00;;;;;;;45.65;4.13;;;17.10;48.20;;;;;;6156565;23;20190;-82
2024/01/02 09:59:56;;;;;;;27.48;3.80;;;17.00;48.90;;;;;;6114616;23;20587;-82
2024/01/02 10:02:50;;;;;;;23.98;2.58;;;17.00;48.00;;;;;;6085006;23;20218;-83
2024/01/02 10:05:51;;;;;;;29.25;2.70;;;17.00;47.90;;;;;;6115421;23;20671;-83
2024/01/02 10:08:39;;;;;;;29.98;2.88;;;17.20;48.20;;;;;;6111060;23;20216;-82
2024/01/02 10:11:40;;;;;;;26.27;1.88;;;17.20;48.60;;;;;;6087047;23;20162;-83
2024/01/02 10:14:31;;;;;;;23.15;2.70;;;17.10;48.50;;;;;;6111613;23;20170;-83
2024/01/02 10:17:13;;;;;;;24.08;2.75;;;17.10;48.60;;;;;;6161598;23;20562;-83
2024/01/02 10:20:20;;;;;;;18.70;2.08;;;17.20;48.30;;;;;;6134762;23;20135;-83
2024/01/02 10:23:06;;;;;;;23.45;2.42;;;17.20;48.30;;;;;;6090768;23;20649;-85
2024/01/02 10:25:35;;;;;;;29.83;3.05;;;17.20;48.30;;;;;;6108952;23;20158;-83
2024/01/02 10:28:24;;;;;;;25.65;2.88;;;17.20;48.40;;;;;;6060467;23;20148;-83
2024/01/02 10:31:04;;;;;;;28.38;2.83;;;17.20;48.20;;;;;;6134375;23;20143;-84
2024/01/02 10:33:51;;;;;;;18.45;2.80;;;17.30;48.10;;;;;;6160571;23;20131;-83
2024/01/02 10:36:25;;;;;;;15.93;1.70;;;17.20;48.40;;;;;;6064432;23;20155;-84
2024/01/02 10:39:30;;;;;;;23.20;2.10;;;17.20;48.30;;;;;;6083797;23;20147;-83
2024/01/02 10:42:30;;;;;;;21.38;2.25;;;17.20;48.40;;;;;;6105030;23;20183;-83
2024/01/02 10:45:32;;;;;;;13.43;1.90;;;17.20;48.50;;;;;;6044216;23;20598;-83
2024/01/02 10:48:30;;;;;;;18.90;1.80;;;17.20;48.00;;;;;;6067930;23;20166;-84
2024/01/02 10:51:09;;;;;;;17.30;2.40;;;17.30;47.70;;;;;;6067978;23;20149;-83
2024/01/02 10:54:03;;;;;;;12.27;2.38;;;17.20;47.60;;;;;;6060518;23;20205;-85
2024/01/02 10:56:53;;;;;;;9.80;1.73;;;17.30;47.80;;;;;;6088221;23;20661;-85
2024/01/02 10:59:48;;;;;;;16.67;1.92;;;17.20;48.50;;;;;;6132202;23;20563;-83
2024/01/02 11:02:48;;;;;;;20.00;2.00;;;17.30;48.50;;;;;;6066776;23;20547;-84
2024/01/02 11:05:28;;;;;;;15.68;2.15;;;17.20;48.30;;;;;;6134537;23;20147;-82
2024/01/02 11:08:09;;;;;;;10.07;1.60;;;17.20;48.00;;;;;;6082839;23;20579;-83
2024/01/02 11:11:00;;;;;;;10.80;1.60;;;17.20;48.20;;;;;;6031599;23;20222;-82
2024/01/02 11:13:46;;;;;;;11.43;1.65;;;17.30;48.50;;;;;;6036895;23;20152;-84
2024/01/02 11:16:23;;;;;;;11.90;1.85;;;17.20;48.00;;;;;;6052735;23;20699;-84
2024/01/02 11:18:59;;;;;;;13.02;2.05;;;17.20;48.90;;;;;;6076137;23;20218;-83
2024/01/02 11:21:47;;;;;;;16.52;1.80;;;17.20;49.40;;;;;;6051727;23;20522;-85
2024/01/02 11:24:23;;;;;;;10.18;1.92;;;17.20;48.60;;;;;;6124645;23;20505;-85
2024/01/02 11:26:53;;;;;;;12.38;2.08;;;17.30;48.60;;;;;;6052792;23;20148;-83
2024/01/02 11:29:29;;;;;;;10.15;1.60;;;17.30;49.30;;;;;;6051164;23;20663;-84
2024/01/02 11:31:54;;;;;;;8.40;1.50;;;17.30;48.20;;;;;;6051906;23;20158;-83
2024/01/02 11:34:44;;;;;;;9.73;1.40;;;17.20;48.50;;;;;;6077293;23;20156;-83
2024/01/02 11:37:39;;;;;;;8.43;1.40;;;17.20;48.50;;;;;;6035032;23;20231;-82
2024/01/02 11:40:28;;;;;;;10.43;1.52;;;17.20;48.50;;;;;;6099804;23;20156;-83
2024/01/02 11:43:09;;;;;;;8.43;1.42;;;17.20;48.30;;;;;;6131933;23;20163;-84
2024/01/02 11:45:43;;;;;;;9.80;1.63;;;17.20;48.50;;;;;;6083464;23;20159;-82
2024/01/02 11:48:41;;;;;;;8.70;1.67;;;17.20;48.00;;;;;;6082053;23;20174;-83
2024/01/02 11:51:29;;;;;;;9.98;1.95;;;17.30;47.90;;;;;;6112512;23;20156;-83
2024/01/02 11:54:17;;;;;;;7.38;1.80;;;17.30;48.10;;;;;;6036177;23;20583;-85
2024/01/02 11:56:55;;;;;;;7.57;1.42;;;17.30;48.20;;;;;;6068189;23;20167;-87
2024/01/02 11:59:44;;;;;;;6.53;1.20;;;17.20;48.40;;;;;;6083729;23;20163;-84
2024/01/02 12:02:36;;;;;;;4.15;1.38;;;17.30;48.00;;;;;;6042512;23;20191;-84
2024/01/02 12:05:20;;;;;;;4.47;1.40;;;17.30;48.50;;;;;;6063685;23;20576;-82
2024/01/02 12:07:56;;;;;;;6.45;1.55;;;17.30;48.70;;;;;;6108111;23;20155;-83
2024/01/02 12:10:38;;;;;;;9.18;1.60;;;17.40;48.20;;;;;;6108679;23;20151;-84
2024/01/02 12:13:42;;;;;;;10.43;1.45;;;17.30;48.50;;;;;;6062261;23;20152;-85
2024/01/02 12:16:21;;;;;;;10.70;1.45;;;17.20;49.00;;;;;;6093060;23;20230;-84
2024/01/02 12:18:53;;;;;;;10.30;1.17;;;17.30;48.70;;;;;;6082708;23;20210;-85
2024/01/02 12:21:22;;;;;;;12.77;1.60;;;17.20;49.20;;;;;;6035374;23;20194;-84
2024/01/02 12:23:49;;;;;;;10.65;1.67;;;17.20;48.90;;;;;;6129025;23;20233;-85
2024/01/02 12:26:21;;;;;;;8.95;1.73;;;17.30;48.90;;;;;;6130605;23;20179;-85
2024/01/02 12:28:53;;;;;;;11.70;1.70;;;17.30;48.60;;;;;;6082266;23;20231;-84
2024/01/02 12:31:36;;;;;;;7.05;1.20;;;17.30;48.50;;;;;;6105340;23;20198;-84
2024/01/02 12:34:31;;;;;;;6.65;1.35;;;17.30;48.80;;;;;;6083174;23;20599;-84
2024/01/02 12:37:14;;;;;;;5.28;1.50;;;17.30;49.10;;;;;;6086641;23;20155;-85
2024/01/02 12:39:46;;;;;;;8.63;1.20;;;17.20;48.80;;;;;;6059318;23;20162;-84
2024/01/02 12:42:16;;;;;;;5.88;1.40;;;17.20;49.20;;;;;;6059038;23;20195;-85
2024/01/02 12:44:44;;;;;;;4.60;1.40;;;17.20;48.60;;;;;;6108174;23;20151;-82
2024/01/02 12:47:19;;;;;;;7.85;1.30;;;17.10;49.00;;;;;;6132317;23;20583;-84
2024/01/02 12:49:49;;;;;;;6.53;1.30;;;17.00;49.40;;;;;;6061066;23;20204;-85
2024/01/02 12:52:19;;;;;;;11.10;1.60;;;17.10;50.00;;;;;;6156306;23;20139;-83
2024/01/02 12:54:49;;;;;;;6.13;1.30;;;17.10;49.40;;;;;;6131164;23;20226;-85
2024/01/02 12:57:20;;;;;;;4.22;1.20;;;17.00;49.70;;;;;;6133477;23;20128;-84
2024/01/02 12:59:45;;;;;;;3.92;1.40;;;17.10;48.90;;;;;;6107915;23;20155;-84
2024/01/02 13:02:12;;;;;;;10.38;1.40;;;17.00;49.80;;;;;;6107907;23;20258;-86
2024/01/02 13:04:39;;;;;;;5.38;1.33;;;17.00;49.00;;;;;;6132324;23;20194;-84
2024/01/02 13:07:07;;;;;;;7.75;1.40;;;17.10;48.40;;;;;;6130911;23;20132;-85
2024/01/02 13:09:33;;;;;;;6.03;1.20;;;17.10;49.80;;;;;;6132750;23;20457;-84
2024/01/02 13:12:00;;;;;;;5.88;1.38;;;17.10;49.40;;;;;;6132103;23;20143;-86
2024/01/02 13:14:27;;;;;;;6.07;1.20;;;17.00;49.90;;;;;;6096546;23;20156;-85
2024/01/02 13:16:53;;;;;;;4.15;1.30;;;17.00;49.40;;;;;;6072491;23;20231;-84
2024/01/02 13:19:19;;;;;;;4.90;1.20;;;17.00;49.70;;;;;;6095733;23;20284;-85
2024/01/02 13:21:46;;;;;;;6.28;1.48;;;16.90;49.50;;;;;;6049197;23;20610;-84
2024/01/02 13:24:11;;;;;;;4.35;1.20;;;17.00;49.10;;;;;;6096590;23;20454;-86
2024/01/02 13:26:41;;;;;;;3.72;1.23;;;17.00;49.40;;;;;;6096217;23;20137;-86
2024/01/02 13:29:10;;;;;;;7.07;1.70;;;17.00;49.30;;;;;;6049670;23;20160;-86
2024/01/02 13:31:36;;;;;;;5.82;1.40;;;17.00;49.00;;;;;;6078359;23;20143;-84
2024/01/02 13:34:03;;;;;;;6.45;1.33;;;17.10;49.30;;;;;;6049528;23;20604;-82